Time;durP1;ratioP1;P1;durP2;ratioP2;P2;SDS_P1;SDS_P2;PMS_P1;PMS_P2;Temp;Humidity;BMP_temperature;BMP_pressure;BME280_temperature;BME280_humidity;BME280_pressure;Samples;Min_cycle;Max_cycle;Signal;HPM_P1;HPM_P2
2023/07/25 00:01:57;;;;;;;;;;;16.00;85.40;;;;;;4979028;28;19914;-88
2023/07/25 00:04:23;;;;;;;;;;;16.00;85.90;;;;;;4975187;28;20277;-89
2023/07/25 00:06:48;;;;;;;;;;;16.00;85.70;;;;;;4972354;28;19924;-87
2023/07/25 00:09:14;;;;;;;;;;;16.00;86.10;;;;;;4974562;28;19971;-87
2023/07/25 00:11:39;;;;;;;;;;;15.90;85.50;;;;;;4974665;28;19917;-88
2023/07/25 00:14:05;;;;;;;;;;;15.80;85.90;;;;;;4972470;28;19987;-89
2023/07/25 00:16:33;;;;;;;;;;;15.80;86.10;;;;;;4974599;28;19914;-88
2023/07/25 00:18:58;;;;;;;;;;;15.90;86.30;;;;;;5058593;28;19945;-88
2023/07/25 00:21:24;;;;;;;;;;;16.00;86.10;;;;;;4973918;28;20311;-88
2023/07/25 00:23:49;;;;;;;;;;;16.00;86.10;;;;;;4973747;28;20356;-87
2023/07/25 00:26:15;;;;;;;;;;;16.00;86.30;;;;;;4997136;28;19982;-88
2023/07/25 00:28:40;;;;;;;;;;;16.00;86.30;;;;;;4975660;28;19914;-88
2023/07/25 00:31:06;;;;;;;;;;;16.00;86.50;;;;;;4975395;28;19924;-88
2023/07/25 00:33:32;;;;;;;;;;;16.00;86.10;;;;;;4993606;28;20459;-87
2023/07/25 00:35:57;;;;;;;;;;;16.00;85.90;;;;;;4975868;28;19910;-87
2023/07/25 00:38:23;;;;;;;;;;;16.00;86.00;;;;;;4976126;28;20050;-87
2023/07/25 00:40:48;;;;;;;;;;;16.00;85.90;;;;;;4965256;28;19962;-88
2023/07/25 00:43:14;;;;;;;;;;;16.00;85.70;;;;;;4990590;28;21094;-88
2023/07/25 00:45:39;;;;;;;;;;;16.00;85.50;;;;;;4975033;28;19924;-87
2023/07/25 00:48:05;;;;;;;;;;;16.00;85.50;;;;;;4992228;28;19963;-86
2023/07/25 00:50:30;;;;;;;;;;;16.10;86.10;;;;;;4974358;28;19913;-86
2023/07/25 00:52:58;;;;;;;;;;;16.10;86.60;;;;;;4974784;28;19913;-87
2023/07/25 00:55:23;;;;;;;;;;;16.10;85.60;;;;;;4974305;28;19914;-87
2023/07/25 00:57:49;;;;;;;;;;;16.10;85.90;;;;;;4978523;28;19998;-87
2023/07/25 01:00:15;;;;;;;;;;;16.10;85.20;;;;;;4991196;28;19914;-86
2023/07/25 01:02:40;;;;;;;;;;;16.10;85.20;;;;;;4997876;28;19914;-87
2023/07/25 01:05:06;;;;;;;;;;;16.20;84.50;;;;;;4974207;28;19918;-85
2023/07/25 01:07:32;;;;;;;;;;;16.10;84.20;;;;;;4976298;28;19917;-87
2023/07/25 01:09:57;;;;;;;;;;;16.10;85.20;;;;;;4966708;28;19910;-87
2023/07/25 01:12:24;;;;;;;;;;;16.10;85.00;;;;;;4974320;28;19969;-87
2023/07/25 01:14:49;;;;;;;;;;;16.00;85.80;;;;;;4966600;28;19910;-86
2023/07/25 01:17:17;;;;;;;;;;;16.00;85.30;;;;;;4974618;28;20385;-87
2023/07/25 01:19:43;;;;;;;;;;;16.00;85.60;;;;;;4998472;28;19919;-86
2023/07/25 01:22:09;;;;;;;;;;;16.00;85.20;;;;;;4977971;28;19914;-86
2023/07/25 01:24:36;;;;;;;;;;;16.10;86.00;;;;;;4974433;28;20525;-86
2023/07/25 01:27:02;;;;;;;;;;;16.00;85.00;;;;;;4977255;28;19917;-86
2023/07/25 01:29:27;;;;;;;;;;;16.10;84.70;;;;;;4973857;28;20017;-87
2023/07/25 01:31:53;;;;;;;;;;;16.10;84.00;;;;;;4972339;28;20004;-87
2023/07/25 01:34:18;;;;;;;;;;;16.00;84.30;;;;;;4980588;28;19959;-87
2023/07/25 01:36:44;;;;;;;;;;;16.00;85.30;;;;;;4966385;28;19910;-87
2023/07/25 01:39:09;;;;;;;;;;;16.00;84.80;;;;;;4991617;28;20335;-87
2023/07/25 01:41:35;;;;;;;;;;;16.00;84.90;;;;;;4972822;28;19914;-87
2023/07/25 01:44:00;;;;;;;;;;;16.00;85.80;;;;;;4989284;28;19925;-87
2023/07/25 01:46:26;;;;;;;;;;;16.00;86.20;;;;;;4970577;28;19995;-86
2023/07/25 01:48:51;;;;;;;;;;;16.10;85.00;;;;;;4973808;28;19949;-87
2023/07/25 01:51:16;;;;;;;;;;;16.10;83.70;;;;;;4988044;28;20389;-87
2023/07/25 01:53:42;;;;;;;;;;;16.10;83.60;;;;;;4989461;28;19918;-87
2023/07/25 01:56:07;;;;;;;;;;;16.10;83.70;;;;;;4972784;28;19914;-86
2023/07/25 01:58:33;;;;;;;;;;;16.00;83.30;;;;;;4985118;28;19953;-87
2023/07/25 02:00:59;;;;;;;;;;;16.00;83.60;;;;;;4994830;28;19925;-86
2023/07/25 02:03:25;;;;;;;;;;;16.00;84.10;;;;;;4989016;28;19996;-86
2023/07/25 02:05:50;;;;;;;;;;;16.00;83.50;;;;;;4973911;28;20021;-87
2023/07/25 02:08:16;;;;;;;;;;;16.00;83.60;;;;;;4973989;28;19910;-88
2023/07/25 02:10:41;;;;;;;;;;;15.90;83.70;;;;;;4991171;28;19909;-88
2023/07/25 02:13:07;;;;;;;;;;;15.90;84.50;;;;;;4990094;28;19941;-87
2023/07/25 02:15:32;;;;;;;;;;;16.00;84.70;;;;;;4972847;28;19918;-87
2023/07/25 02:17:57;;;;;;;;;;;15.90;84.10;;;;;;4973004;28;20343;-88
2023/07/25 02:20:25;;;;;;;;;;;16.00;83.50;;;;;;4974721;28;19910;-87
2023/07/25 02:22:51;;;;;;;;;;;15.90;83.90;;;;;;4964552;28;19963;-88
2023/07/25 02:25:16;;;;;;;;;;;15.90;84.20;;;;;;4991212;28;19929;-88
2023/07/25 02:27:42;;;;;;;;;;;15.80;84.70;;;;;;4981518;28;19921;-87
2023/07/25 02:30:07;;;;;;;;;;;15.80;84.20;;;;;;4973795;28;20009;-87
2023/07/25 02:32:33;;;;;;;;;;;15.70;84.40;;;;;;4971279;28;20004;-87
2023/07/25 02:34:58;;;;;;;;;;;15.60;85.10;;;;;;4967223;28;19917;-87
2023/07/25 02:37:24;;;;;;;;;;;15.60;84.50;;;;;;4973939;28;19913;-88
2023/07/25 02:39:49;;;;;;;;;;;15.60;84.80;;;;;;4989766;28;20306;-87
2023/07/25 02:42:15;;;;;;;;;;;15.60;84.70;;;;;;4972822;28;20026;-88
2023/07/25 02:44:43;;;;;;;;;;;15.40;85.50;;;;;;4989599;22;20012;-87
2023/07/25 02:47:08;;;;;;;;;;;15.50;85.10;;;;;;4973028;28;20146;-87
2023/07/25 02:49:40;;;;;;;;;;;15.40;85.60;;;;;;4997377;28;19914;-85
2023/07/25 02:52:06;;;;;;;;;;;15.40;86.00;;;;;;4979030;28;19918;-86
2023/07/25 02:54:31;;;;;;;;;;;15.30;85.30;;;;;;4972659;28;20005;-86
2023/07/25 02:56:57;;;;;;;;;;;15.20;85.20;;;;;;4976998;28;20035;-86
2023/07/25 02:59:22;;;;;;;;;;;15.20;85.60;;;;;;4986479;28;19972;-87
2023/07/25 03:01:48;;;;;;;;;;;15.10;86.20;;;;;;4983380;28;19914;-86
2023/07/25 03:04:14;;;;;;;;;;;15.00;87.00;;;;;;4982664;28;19914;-86
2023/07/25 03:06:39;;;;;;;;;;;15.00;87.50;;;;;;4986521;28;19925;-87
2023/07/25 03:09:04;;;;;;;;;;;15.00;87.30;;;;;;4991507;28;19958;-86
2023/07/25 03:11:30;;;;;;;;;;;15.00;87.40;;;;;;4984807;28;19914;-86
2023/07/25 03:13:55;;;;;;;;;;;14.90;87.40;;;;;;4979436;28;19939;-86
2023/07/25 03:16:21;;;;;;;;;;;14.90;87.80;;;;;;4984345;28;19921;-87
2023/07/25 03:18:46;;;;;;;;;;;15.00;87.60;;;;;;4990142;28;20001;-86
2023/07/25 03:21:12;;;;;;;;;;;15.00;86.90;;;;;;4972367;28;19922;-85
2023/07/25 03:23:37;;;;;;;;;;;15.00;87.40;;;;;;5005604;28;20008;-86
2023/07/25 03:26:03;;;;;;;;;;;14.90;87.30;;;;;;4987393;28;20391;-86
2023/07/25 03:28:32;;;;;;;;;;;14.90;86.80;;;;;;4983614;28;19914;-86
2023/07/25 03:30:57;;;;;;;;;;;14.80;87.20;;;;;;4978753;28;19914;-86
2023/07/25 03:33:23;;;;;;;;;;;14.80;87.60;;;;;;4973154;28;20186;-86
2023/07/25 03:35:48;;;;;;;;;;;14.80;87.90;;;;;;4971187;28;19916;-86
2023/07/25 03:38:14;;;;;;;;;;;14.90;87.80;;;;;;4973359;28;19937;-86
2023/07/25 03:40:39;;;;;;;;;;;14.90;87.60;;;;;;4972051;28;20294;-85
2023/07/25 03:43:05;;;;;;;;;;;14.90;88.00;;;;;;4979536;28;19918;-87
2023/07/25 03:45:30;;;;;;;;;;;14.90;87.70;;;;;;4982093;28;19918;-86
2023/07/25 03:47:55;;;;;;;;;;;14.80;87.50;;;;;;4979138;28;19918;-85
2023/07/25 03:50:21;;;;;;;;;;;14.80;87.80;;;;;;4975006;28;20017;-85
2023/07/25 03:52:46;;;;;;;;;;;14.90;87.40;;;;;;4991468;28;19914;-85
2023/07/25 03:55:12;;;;;;;;;;;14.80;87.50;;;;;;4989503;28;19914;-86
2023/07/25 03:57:37;;;;;;;;;;;14.80;87.30;;;;;;4995381;28;19910;-85
2023/07/25 04:00:04;;;;;;;;;;;14.60;87.90;;;;;;4985178;28;19920;-85
2023/07/25 04:02:30;;;;;;;;;;;14.60;88.10;;;;;;4991543;28;19921;-86
2023/07/25 04:04:55;;;;;;;;;;;14.60;88.30;;;;;;4985889;28;19922;-86
2023/07/25 04:07:21;;;;;;;;;;;14.50;88.40;;;;;;4990707;28;20402;-86
2023/07/25 04:09:46;;;;;;;;;;;14.50;88.10;;;;;;4991510;28;20286;-85
2023/07/25 04:12:12;;;;;;;;;;;14.60;87.90;;;;;;4979222;28;19993;-85
2023/07/25 04:14:38;;;;;;;;;;;14.50;88.00;;;;;;4980514;28;19910;-85
2023/07/25 04:17:04;;;;;;;;;;;14.60;88.00;;;;;;4978693;28;20337;-85
2023/07/25 04:19:32;;;;;;;;;;;14.50;88.40;;;;;;4987601;28;19918;-86
2023/07/25 04:21:58;;;;;;;;;;;14.50;88.00;;;;;;4995920;28;19914;-87
2023/07/25 04:24:31;;;;;;;;;;;14.60;88.30;;;;;;4980838;28;19924;-89
2023/07/25 04:26:59;;;;;;;;;;;14.60;87.80;;;;;;4993792;28;20021;-86
2023/07/25 04:29:24;;;;;;;;;;;14.60;88.00;;;;;;4988169;28;19922;-87
2023/07/25 04:32:26;;;;;;;;;;;14.60;88.30;;;;;;4989892;28;19921;-88
2023/07/25 04:37:29;;;;;;;;;;;14.60;88.00;;;;;;4977674;28;19926;-81
2023/07/25 04:39:55;;;;;;;;;;;14.70;87.50;;;;;;4962561;28;19914;-82
2023/07/25 04:42:20;;;;;;;;;;;14.80;87.70;;;;;;4997652;28;19978;-84
2023/07/25 04:44:46;;;;;;;;;;;14.80;88.10;;;;;;4956363;28;22326;-84
2023/07/25 04:47:36;;;;;;;;;;;14.80;88.00;;;;;;4972073;28;20012;-84
2023/07/25 04:54:04;;;;;;;;;;;14.90;88.60;;;;;;4927780;28;19918;-82
2023/07/25 04:56:59;;;;;;;;;;;14.90;88.50;;;;;;4978192;22;19926;-83
2023/07/25 04:59:38;;;;;;;;;;;;;;;;;;;;;
2023/07/25 05:03:01;;;;;;;;;;;;;;;;;;;;;
2023/07/25 05:12:29;;;;;;;;;;;14.90;87.00;;;;;;4962968;28;19914;-83
2023/07/25 05:15:10;;;;;;;;;;;14.90;87.50;;;;;;4965039;28;19921;-89
2023/07/25 05:17:59;;;;;;;;;;;14.90;88.00;;;;;;4980588;28;19937;-83
2023/07/25 05:20:34;;;;;;;;;;;14.90;87.60;;;;;;4940876;28;20005;-84
2023/07/25 05:23:11;;;;;;;;;;;14.90;88.30;;;;;;5012448;28;19922;-84
2023/07/25 05:25:37;;;;;;;;;;;14.90;87.20;;;;;;5030865;22;19980;-84
2023/07/25 05:28:03;;;;;;;;;;;14.90;86.70;;;;;;4998159;28;19918;-84
2023/07/25 05:30:28;;;;;;;;;;;15.00;86.40;;;;;;4984679;28;20759;-85
2023/07/25 05:32:54;;;;;;;;;;;15.00;86.30;;;;;;5002831;22;19979;-88
2023/07/25 05:35:19;;;;;;;;;;;15.00;86.30;;;;;;4975459;28;19918;-88
2023/07/25 05:37:45;;;;;;;;;;;15.00;86.80;;;;;;5000710;28;19914;-89
2023/07/25 05:40:10;;;;;;;;;;;15.10;86.00;;;;;;4988019;28;19913;-88
2023/07/25 05:42:36;;;;;;;;;;;15.10;86.10;;;;;;4994821;28;19917;-88
2023/07/25 05:45:01;;;;;;;;;;;15.10;85.40;;;;;;4965979;28;19936;-88
2023/07/25 05:47:27;;;;;;;;;;;15.20;85.20;;;;;;5023986;22;20034;-83
2023/07/25 05:49:53;;;;;;;;;;;15.40;82.30;;;;;;4989155;28;19913;-83
2023/07/25 05:52:18;;;;;;;;;;;15.50;81.20;;;;;;4991992;28;19925;-83
2023/07/25 05:54:44;;;;;;;;;;;15.40;82.20;;;;;;4986679;28;20000;-82
2023/07/25 05:57:09;;;;;;;;;;;15.50;82.30;;;;;;4976959;28;20332;-82
2023/07/25 05:59:34;;;;;;;;;;;15.50;81.70;;;;;;4968750;28;19932;-82
2023/07/25 06:02:00;;;;;;;;;;;15.40;81.80;;;;;;4960026;28;19914;-83
2023/07/25 06:04:25;;;;;;;;;;;15.50;82.60;;;;;;4961936;28;19914;-83
2023/07/25 06:06:51;;;;;;;;;;;15.50;82.20;;;;;;4968999;28;19937;-82
2023/07/25 06:09:16;;;;;;;;;;;15.60;81.60;;;;;;4984467;28;19921;-83
2023/07/25 06:11:42;;;;;;;;;;;15.60;81.80;;;;;;4972840;28;19914;-84
2023/07/25 06:14:07;;;;;;;;;;;15.60;81.20;;;;;;4989528;28;19909;-84
2023/07/25 06:16:33;;;;;;;;;;;15.60;80.70;;;;;;4989735;28;19910;-84
2023/07/25 06:18:58;;;;;;;;;;;15.60;79.60;;;;;;4972850;28;19933;-83
2023/07/25 06:21:24;;;;;;;;;;;15.70;80.70;;;;;;4973622;28;19929;-84
2023/07/25 06:23:49;;;;;;;;;;;15.80;81.80;;;;;;4964023;28;20337;-83
2023/07/25 06:26:15;;;;;;;;;;;16.00;79.70;;;;;;4971163;28;19930;-83
2023/07/25 06:28:40;;;;;;;;;;;16.10;78.90;;;;;;4968093;28;19914;-83
2023/07/25 06:31:06;;;;;;;;;;;16.30;76.80;;;;;;4962329;28;19922;-83
2023/07/25 06:33:31;;;;;;;;;;;16.40;77.60;;;;;;4961695;28;19921;-83
2023/07/25 06:35:56;;;;;;;;;;;16.40;77.20;;;;;;4957176;28;19929;-83
2023/07/25 06:38:22;;;;;;;;;;;16.60;75.90;;;;;;4970680;28;19921;-83
2023/07/25 06:40:47;;;;;;;;;;;16.60;75.10;;;;;;4972219;28;19914;-82
2023/07/25 06:43:13;;;;;;;;;;;16.40;76.90;;;;;;4964374;28;19946;-83
2023/07/25 06:45:38;;;;;;;;;;;16.40;77.60;;;;;;4984639;28;19940;-83
2023/07/25 06:48:04;;;;;;;;;;;16.50;77.20;;;;;;4976118;28;19924;-82
2023/07/25 06:50:32;;;;;;;;;;;16.50;75.60;;;;;;4974517;28;20302;-82
2023/07/25 06:52:58;;;;;;;;;;;16.50;75.30;;;;;;4970042;28;19914;-82
2023/07/25 06:55:23;;;;;;;;;;;16.20;76.70;;;;;;4972182;28;19918;-82
2023/07/25 06:57:49;;;;;;;;;;;16.10;78.40;;;;;;4989329;28;19922;-82
2023/07/25 07:00:14;;;;;;;;;;;16.10;77.90;;;;;;4974108;28;19921;-82
2023/07/25 07:02:40;;;;;;;;;;;16.00;78.70;;;;;;4966796;28;19914;-83
2023/07/25 07:05:06;;;;;;;;;;;16.10;77.80;;;;;;4993023;28;19964;-83
2023/07/25 07:07:31;;;;;;;;;;;16.10;77.60;;;;;;4963604;28;19958;-82
2023/07/25 07:09:57;;;;;;;;;;;16.10;76.50;;;;;;4985479;28;19914;-82
2023/07/25 07:12:22;;;;;;;;;;;16.20;76.30;;;;;;4983019;28;19924;-84
2023/07/25 07:14:48;;;;;;;;;;;16.00;77.20;;;;;;4978762;28;20596;-85
2023/07/25 07:17:14;;;;;;;;;;;16.00;76.70;;;;;;4973115;28;19960;-82
2023/07/25 07:19:39;;;;;;;;;;;16.00;77.30;;;;;;4989194;28;19913;-82
2023/07/25 07:22:04;;;;;;;;;;;16.00;78.30;;;;;;4981032;28;19939;-82
2023/07/25 07:24:30;;;;;;;;;;;16.00;79.50;;;;;;4980649;28;19925;-82
2023/07/25 07:26:55;;;;;;;;;;;16.20;78.60;;;;;;4990431;28;20387;-83
2023/07/25 07:29:21;;;;;;;;;;;16.30;77.90;;;;;;4976141;28;19921;-85
2023/07/25 07:31:46;;;;;;;;;;;16.40;78.10;;;;;;4973167;28;20059;-86
2023/07/25 07:34:14;;;;;;;;;;;16.50;77.40;;;;;;4970810;28;19921;-82
2023/07/25 07:36:43;;;;;;;;;;;16.70;77.80;;;;;;4967606;28;20002;-82
2023/07/25 07:39:09;;;;;;;;;;;16.70;77.00;;;;;;4983726;28;19918;-82
2023/07/25 07:41:35;;;;;;;;;;;16.70;75.80;;;;;;4968452;28;20281;-83
2023/07/25 07:44:02;;;;;;;;;;;16.80;75.50;;;;;;4991174;28;20136;-82
2023/07/25 07:46:28;;;;;;;;;;;16.80;75.10;;;;;;4996718;28;19918;-82
2023/07/25 07:48:54;;;;;;;;;;;16.80;74.20;;;;;;5002963;28;19973;-83
2023/07/25 07:51:19;;;;;;;;;;;16.80;73.80;;;;;;4991478;28;19914;-83
2023/07/25 07:53:45;;;;;;;;;;;16.90;74.10;;;;;;4973824;28;19910;-83
2023/07/25 07:56:12;;;;;;;;;;;16.80;73.50;;;;;;4976724;28;19914;-82
2023/07/25 07:58:37;;;;;;;;;;;16.90;72.80;;;;;;4974431;28;20017;-83
2023/07/25 08:01:03;;;;;;;;;;;17.00;73.70;;;;;;4993138;28;19953;-85
2023/07/25 08:03:28;;;;;;;;;;;17.30;71.80;;;;;;4983708;28;19928;-85
2023/07/25 08:05:57;;;;;;;;;;;17.40;73.20;;;;;;5003936;28;19901;-85
2023/07/25 08:08:22;;;;;;;;;;;17.50;71.40;;;;;;4996491;28;19925;-85
2023/07/25 08:10:48;;;;;;;;;;;17.60;73.20;;;;;;5008657;28;19929;-85
2023/07/25 08:13:14;;;;;;;;;;;17.70;74.70;;;;;;4991592;28;19914;-85
2023/07/25 08:15:39;;;;;;;;;;;17.80;73.90;;;;;;4992749;28;19953;-85
2023/07/25 08:18:04;;;;;;;;;;;17.70;72.50;;;;;;4968916;28;20039;-86
2023/07/25 08:20:30;;;;;;;;;;;17.80;69.40;;;;;;4966255;28;20409;-85
2023/07/25 08:22:55;;;;;;;;;;;18.00;70.10;;;;;;4986443;28;19925;-87
2023/07/25 08:25:21;;;;;;;;;;;18.00;68.50;;;;;;4968274;28;20452;-89
2023/07/25 08:27:46;;;;;;;;;;;18.10;67.60;;;;;;4989843;28;19997;-85
2023/07/25 08:30:12;;;;;;;;;;;18.10;68.40;;;;;;4979532;28;19982;-86
2023/07/25 08:32:37;;;;;;;;;;;18.20;68.50;;;;;;4993192;28;19929;-87
2023/07/25 08:35:03;;;;;;;;;;;18.30;67.30;;;;;;4999365;28;19910;-86
2023/07/25 08:37:29;;;;;;;;;;;18.20;67.60;;;;;;4993180;28;19921;-86
2023/07/25 08:39:54;;;;;;;;;;;18.30;69.40;;;;;;4979400;28;19925;-86
2023/07/25 08:42:21;;;;;;;;;;;18.40;69.00;;;;;;4979988;28;19910;-86
2023/07/25 08:44:49;;;;;;;;;;;18.50;69.40;;;;;;4978180;28;19914;-85
2023/07/25 08:47:21;;;;;;;;;;;18.50;68.40;;;;;;4920307;28;1757087;-87
2023/07/25 08:49:47;;;;;;;;;;;18.50;68.60;;;;;;4992399;28;19909;-85
2023/07/25 08:52:16;;;;;;;;;;;18.50;69.60;;;;;;4972730;28;20059;-85
2023/07/25 08:54:42;;;;;;;;;;;18.60;67.30;;;;;;4989518;28;19964;-85
2023/07/25 08:57:08;;;;;;;;;;;18.80;65.10;;;;;;4989460;28;19928;-85
2023/07/25 08:59:33;;;;;;;;;;;18.90;63.10;;;;;;4974623;28;19913;-85
2023/07/25 09:02:00;;;;;;;;;;;18.60;66.40;;;;;;4990299;28;19918;-85
2023/07/25 09:04:26;;;;;;;;;;;18.60;66.40;;;;;;4992038;28;19964;-86
2023/07/25 09:06:52;;;;;;;;;;;18.70;64.50;;;;;;4971976;28;19914;-86
2023/07/25 09:09:17;;;;;;;;;;;18.70;64.50;;;;;;4971715;28;19979;-86
2023/07/25 09:11:44;;;;;;;;;;;18.60;64.40;;;;;;4973193;28;20416;-85
2023/07/25 09:14:09;;;;;;;;;;;18.50;64.80;;;;;;4974615;28;20004;-85
2023/07/25 09:16:35;;;;;;;;;;;18.50;64.00;;;;;;4992809;28;20406;-85
2023/07/25 09:19:00;;;;;;;;;;;18.30;65.50;;;;;;4972024;28;19913;-86
2023/07/25 09:21:26;;;;;;;;;;;18.30;66.30;;;;;;4990600;28;20487;-86
2023/07/25 09:23:52;;;;;;;;;;;18.20;65.30;;;;;;4971559;28;19917;-85
2023/07/25 09:26:21;;;;;;;;;;;18.20;65.10;;;;;;4972132;28;20375;-86
2023/07/25 09:28:47;;;;;;;;;;;18.00;65.80;;;;;;4992515;28;19910;-86
2023/07/25 09:31:13;;;;;;;;;;;17.90;67.30;;;;;;4994464;28;19996;-86
2023/07/25 09:33:39;;;;;;;;;;;17.80;66.40;;;;;;4998549;28;19956;-85
2023/07/25 09:36:05;;;;;;;;;;;17.70;67.10;;;;;;4981516;28;19975;-86
2023/07/25 09:38:32;;;;;;;;;;;17.70;67.30;;;;;;5003734;28;19914;-86
2023/07/25 09:40:58;;;;;;;;;;;17.80;67.30;;;;;;4977568;28;19914;-86
2023/07/25 09:43:24;;;;;;;;;;;17.90;67.30;;;;;;4979270;28;19913;-85
2023/07/25 09:45:50;;;;;;;;;;;17.90;67.70;;;;;;4978452;28;19918;-86
2023/07/25 09:48:16;;;;;;;;;;;18.00;67.80;;;;;;4991359;28;19987;-86
2023/07/25 09:50:44;;;;;;;;;;;18.20;67.70;;;;;;4984152;28;19910;-85
2023/07/25 09:53:10;;;;;;;;;;;18.20;66.40;;;;;;4971166;28;19918;-86
2023/07/25 09:55:35;;;;;;;;;;;18.30;66.00;;;;;;4976456;28;19922;-86
2023/07/25 09:58:01;;;;;;;;;;;18.50;67.20;;;;;;4989896;28;20001;-86
2023/07/25 10:00:27;;;;;;;;;;;18.60;64.90;;;;;;4969610;28;19922;-85
2023/07/25 10:02:53;;;;;;;;;;;18.80;64.90;;;;;;4974636;28;19922;-83
2023/07/25 10:05:19;;;;;;;;;;;18.90;64.90;;;;;;4992489;28;20417;-82
2023/07/25 10:07:45;;;;;;;;;;;19.00;61.90;;;;;;4989154;28;19922;-81
2023/07/25 10:10:11;;;;;;;;;;;18.90;63.20;;;;;;4992039;28;19924;-82
2023/07/25 10:12:36;;;;;;;;;;;18.90;62.50;;;;;;4991642;28;20024;-82
2023/07/25 10:15:02;;;;;;;;;;;18.80;63.80;;;;;;4986974;28;19921;-82
2023/07/25 10:17:27;;;;;;;;;;;18.80;65.30;;;;;;4989973;28;19914;-82
2023/07/25 10:19:54;;;;;;;;;;;18.80;63.00;;;;;;4991580;28;19918;-82
2023/07/25 10:22:39;;;;;;;;;;;18.80;62.30;;;;;;4976394;28;20313;-82
2023/07/25 10:25:09;;;;;;;;;;;18.90;63.80;;;;;;4973287;28;19921;-82
2023/07/25 10:27:34;;;;;;;;;;;19.10;65.60;;;;;;4990856;28;20020;-83
2023/07/25 10:30:02;;;;;;;;;;;19.20;63.00;;;;;;4989241;28;19956;-83
2023/07/25 10:32:44;;;;;;;;;;;19.30;63.80;;;;;;4992487;28;20299;-82
2023/07/25 10:35:09;;;;;;;;;;;19.30;62.70;;;;;;4983785;28;20445;-82
2023/07/25 10:37:41;;;;;;;;;;;19.40;61.20;;;;;;4975354;28;19972;-83
2023/07/25 10:40:12;;;;;;;;;;;19.30;60.40;;;;;;4976206;28;20350;-82
2023/07/25 10:42:41;;;;;;;;;;;19.00;62.00;;;;;;4993561;28;19975;-82
2023/07/25 10:45:06;;;;;;;;;;;18.90;64.20;;;;;;4991340;28;19949;-83
2023/07/25 10:47:42;;;;;;;;;;;19.00;64.70;;;;;;4989571;28;20035;-83
2023/07/25 10:50:07;;;;;;;;;;;19.10;62.90;;;;;;4993900;28;20977;-82
2023/07/25 10:52:41;;;;;;;;;;;19.00;62.70;;;;;;4972014;28;20422;-82
2023/07/25 10:55:09;;;;;;;;;;;18.90;62.80;;;;;;4975168;28;19914;-82
2023/07/25 10:57:34;;;;;;;;;;;18.80;63.90;;;;;;4976211;28;19910;-83
2023/07/25 10:59:59;;;;;;;;;;;18.60;64.50;;;;;;4976607;28;19921;-83
2023/07/25 11:02:29;;;;;;;;;;;18.50;63.60;;;;;;4974786;28;19961;-83
2023/07/25 11:05:13;;;;;;;;;;;18.50;63.40;;;;;;4975130;28;20333;-83
2023/07/25 11:07:38;;;;;;;;;;;18.60;63.50;;;;;;4994950;28;19944;-83
2023/07/25 11:10:04;;;;;;;;;;;18.50;64.90;;;;;;5009918;28;19922;-82
2023/07/25 11:12:30;;;;;;;;;;;18.30;66.60;;;;;;5019939;28;19914;-82
2023/07/25 11:14:55;;;;;;;;;;;18.20;67.40;;;;;;4975356;28;20106;-83
2023/07/25 11:17:26;;;;;;;;;;;18.10;67.50;;;;;;4992401;28;19992;-82
2023/07/25 11:19:51;;;;;;;;;;;18.00;67.30;;;;;;4972754;28;19914;-82
2023/07/25 11:22:17;;;;;;;;;;;18.10;67.80;;;;;;4972354;28;19920;-83
2023/07/25 11:24:43;;;;;;;;;;;17.90;66.00;;;;;;4968540;28;19960;-82
2023/07/25 11:27:09;;;;;;;;;;;18.00;65.80;;;;;;4993072;28;19969;-82
2023/07/25 11:29:35;;;;;;;;;;;18.10;66.30;;;;;;4977297;28;19917;-82
2023/07/25 11:32:01;;;;;;;;;;;18.30;64.30;;;;;;4977376;28;19967;-82
2023/07/25 11:34:26;;;;;;;;;;;18.40;64.40;;;;;;4995909;28;19914;-82
2023/07/25 11:36:52;;;;;;;;;;;18.30;63.50;;;;;;4993553;28;19909;-82
2023/07/25 11:39:18;;;;;;;;;;;18.50;62.70;;;;;;4986976;28;19913;-82
2023/07/25 11:41:44;;;;;;;;;;;18.50;62.60;;;;;;4978956;28;20318;-82
2023/07/25 11:44:11;;;;;;;;;;;18.30;64.20;;;;;;4991187;28;19917;-82
2023/07/25 11:49:18;;;;;;;;;;;18.30;66.10;;;;;;5038171;28;19929;-80
2023/07/25 11:51:44;;;;;;;;;;;18.20;66.20;;;;;;5043091;28;20044;-82
2023/07/25 11:54:10;;;;;;;;;;;18.20;66.00;;;;;;5041912;28;19913;-80
2023/07/25 11:56:36;;;;;;;;;;;18.20;66.20;;;;;;5033787;28;19967;-79
2023/07/25 11:59:02;;;;;;;;;;;18.20;67.00;;;;;;5017907;28;19938;-80
2023/07/25 12:01:33;;;;;;;;;;;18.10;67.80;;;;;;5003314;28;20261;-80
2023/07/25 12:04:01;;;;;;;;;;;18.20;66.90;;;;;;5004326;28;20679;-79
2023/07/25 12:06:28;;;;;;;;;;;18.30;67.90;;;;;;5019338;28;20016;-80
2023/07/25 12:09:00;;;;;;;;;;;18.30;68.00;;;;;;5001490;28;20404;-81
2023/07/25 12:11:30;;;;;;;;;;;18.50;66.60;;;;;;5020223;28;19921;-80
2023/07/25 12:13:56;;;;;;;;;;;18.50;65.10;;;;;;5018794;28;19913;-81
2023/07/25 12:16:35;;;;;;;;;;;18.60;66.00;;;;;;5019308;28;19937;-81
2023/07/25 12:19:03;;;;;;;;;;;18.70;64.70;;;;;;5004374;28;19921;-80
2023/07/25 12:21:39;;;;;;;;;;;18.80;64.10;;;;;;5002628;28;20360;-81
2023/07/25 12:24:09;;;;;;;;;;;18.90;64.70;;;;;;4994288;28;19923;-81
2023/07/25 12:26:51;;;;;;;;;;;18.90;64.20;;;;;;5030430;22;19926;-80
2023/07/25 12:29:21;;;;;;;;;;;19.00;65.00;;;;;;4983569;28;20004;-81
2023/07/25 12:31:47;;;;;;;;;;;19.10;64.30;;;;;;4982781;28;19974;-80
2023/07/25 12:34:18;;;;;;;;;;;19.10;63.90;;;;;;4986150;28;19944;-80
2023/07/25 12:36:44;;;;;;;;;;;19.10;63.90;;;;;;4988766;28;19914;-81
2023/07/25 12:39:13;;;;;;;;;;;19.10;65.20;;;;;;4992646;28;19914;-81
2023/07/25 12:41:39;;;;;;;;;;;19.10;63.10;;;;;;4994357;28;19914;-80
2023/07/25 12:44:05;;;;;;;;;;;19.10;64.60;;;;;;4993474;28;19914;-80
2023/07/25 12:46:30;;;;;;;;;;;19.10;65.10;;;;;;4994030;28;19975;-80
2023/07/25 12:48:56;;;;;;;;;;;19.10;63.70;;;;;;4993682;28;19942;-81
2023/07/25 12:51:21;;;;;;;;;;;19.10;63.40;;;;;;4994347;28;19918;-81
2023/07/25 12:53:47;;;;;;;;;;;19.30;59.30;;;;;;4994479;28;19949;-80
2023/07/25 12:56:12;;;;;;;;;;;19.30;59.30;;;;;;4994559;28;20385;-82
2023/07/25 12:58:38;;;;;;;;;;;19.30;62.60;;;;;;4996661;28;19910;-80
2023/07/25 13:01:06;;;;;;;;;;;19.50;62.80;;;;;;4992877;28;20376;-82
2023/07/25 13:03:38;;;;;;;;;;;19.40;60.70;;;;;;4995960;28;19914;-83
2023/07/25 13:06:04;;;;;;;;;;;19.60;56.40;;;;;;4994417;28;19971;-83
2023/07/25 13:08:29;;;;;;;;;;;19.40;58.60;;;;;;4994232;28;19913;-82
2023/07/25 13:10:55;;;;;;;;;;;19.50;56.30;;;;;;4991784;28;19956;-83
2023/07/25 13:13:20;;;;;;;;;;;19.50;58.00;;;;;;4992819;28;19914;-83
2023/07/25 13:15:46;;;;;;;;;;;19.60;56.70;;;;;;4990326;28;19993;-84
2023/07/25 13:18:11;;;;;;;;;;;19.70;56.30;;;;;;4991751;28;20330;-82
2023/07/25 13:20:37;;;;;;;;;;;19.60;57.10;;;;;;4989812;28;19914;-82
2023/07/25 13:23:02;;;;;;;;;;;19.80;56.00;;;;;;4993378;28;20322;-84
2023/07/25 13:25:28;;;;;;;;;;;19.80;55.10;;;;;;4988558;28;19985;-82
2023/07/25 13:27:53;;;;;;;;;;;19.80;55.80;;;;;;4995550;28;19918;-84
2023/07/25 13:30:19;;;;;;;;;;;19.90;54.70;;;;;;4994091;28;19920;-83
2023/07/25 13:32:44;;;;;;;;;;;20.10;56.00;;;;;;4998023;28;19910;-84
2023/07/25 13:35:10;;;;;;;;;;;20.30;54.10;;;;;;4994863;28;19918;-82
2023/07/25 13:37:35;;;;;;;;;;;20.50;52.90;;;;;;4993593;28;19921;-83
2023/07/25 13:40:01;;;;;;;;;;;20.40;52.10;;;;;;4990518;28;19913;-84
2023/07/25 13:42:27;;;;;;;;;;;20.30;53.50;;;;;;4989373;28;19910;-83
2023/07/25 13:44:53;;;;;;;;;;;20.40;55.00;;;;;;4984899;28;20257;-85
2023/07/25 13:47:18;;;;;;;;;;;20.40;53.50;;;;;;4986585;28;19914;-80
2023/07/25 13:49:44;;;;;;;;;;;20.10;53.80;;;;;;4987186;28;19923;-86
2023/07/25 13:52:11;;;;;;;;;;;19.70;55.60;;;;;;4986489;28;19944;-86
2023/07/25 13:54:37;;;;;;;;;;;19.30;57.20;;;;;;4989343;28;19914;-85
2023/07/25 13:57:02;;;;;;;;;;;19.20;56.50;;;;;;4992759;28;19961;-83
2023/07/25 13:59:28;;;;;;;;;;;19.00;57.40;;;;;;4989293;28;19914;-85
2023/07/25 14:01:53;;;;;;;;;;;18.80;58.30;;;;;;4989474;28;19936;-86
2023/07/25 14:04:19;;;;;;;;;;;18.70;58.90;;;;;;4981026;28;20047;-85
2023/07/25 14:06:50;;;;;;;;;;;18.60;59.30;;;;;;4994870;28;19921;-83
2023/07/25 14:09:22;;;;;;;;;;;18.50;60.00;;;;;;4987581;28;19910;-85
2023/07/25 14:11:47;;;;;;;;;;;18.30;61.00;;;;;;4987902;28;19913;-84
2023/07/25 14:14:12;;;;;;;;;;;18.20;61.60;;;;;;4993554;28;20433;-83
2023/07/25 14:16:38;;;;;;;;;;;18.00;63.60;;;;;;4994713;28;19921;-85
2023/07/25 14:19:03;;;;;;;;;;;17.80;64.80;;;;;;4989617;28;19910;-84
2023/07/25 14:21:29;;;;;;;;;;;17.80;63.80;;;;;;4991760;28;19967;-83
2023/07/25 14:23:54;;;;;;;;;;;17.80;65.20;;;;;;4988764;28;19910;-83
2023/07/25 14:26:20;;;;;;;;;;;17.80;63.90;;;;;;4994500;28;20375;-83
2023/07/25 14:28:45;;;;;;;;;;;18.00;63.30;;;;;;5010992;28;19948;-83
2023/07/25 14:31:11;;;;;;;;;;;18.10;62.20;;;;;;4994198;28;19944;-83
2023/07/25 14:33:37;;;;;;;;;;;18.40;61.40;;;;;;5009129;28;19948;-82